San Diego State University, California
Current Conditions -  °F | °C
As of 3:51 AM on Monday 26 Jan 2015 (Local Time) from KSAN Reporting Station
Scattered Clouds Scattered Clouds  
Wind Chill: 63°   Ceiling: Unl
Heat Index: 63°   Visibility: 10mi
Dew Point: 33°   Wind: 0mph
Humidity: 33%   Direction: NA
Pressure: 29.97"   Gusts: NA
Location:  32.6353°N, 117.099°W
Report Text: KSAN 261151Z 00000KT 10SM FEW150 SCT200 17/01 A2997 RMK AO2 SLP149 T01720006 10200 20167 58009
Loading
Personal Weather Stations






























Interactive Weather Map New forecast layout! Learn more

10-Day Weather Forecast

Advertisements
Track Severe Weather on mobile